sensor_id;sensor_type;location;lat;lon;timestamp;P1;durP1;ratioP1;P2;durP2;ratioP2
35290;SDS011;21411;50.024;19.220;2022-10-31T00:00:42;50.30;;;37.10;;
35290;SDS011;21411;50.024;19.220;2022-10-31T00:03:29;46.00;;;35.20;;
35290;SDS011;21411;50.024;19.220;2022-10-31T00:05:56;44.60;;;35.30;;
35290;SDS011;21411;50.024;19.220;2022-10-31T00:08:22;47.10;;;35.60;;
35290;SDS011;21411;50.024;19.220;2022-10-31T00:10:49;47.50;;;36.60;;
35290;SDS011;21411;50.024;19.220;2022-10-31T00:13:16;50.20;;;38.00;;
35290;SDS011;21411;50.024;19.220;2022-10-31T00:15:42;53.00;;;37.70;;
35290;SDS011;21411;50.024;19.220;2022-10-31T00:18:09;61.10;;;36.10;;
35290;SDS011;21411;50.024;19.220;2022-10-31T00:20:36;88.50;;;34.70;;
35290;SDS011;21411;50.024;19.220;2022-10-31T00:23:03;57.70;;;38.20;;
35290;SDS011;21411;50.024;19.220;2022-10-31T00:25:36;47.50;;;35.50;;
35290;SDS011;21411;50.024;19.220;2022-10-31T00:28:05;48.40;;;36.20;;
35290;SDS011;21411;50.024;19.220;2022-10-31T00:30:33;58.00;;;43.40;;
35290;SDS011;21411;50.024;19.220;2022-10-31T00:32:59;49.50;;;38.00;;
35290;SDS011;21411;50.024;19.220;2022-10-31T00:35:26;50.60;;;36.70;;
35290;SDS011;21411;50.024;19.220;2022-10-31T00:37:53;48.10;;;37.20;;
35290;SDS011;21411;50.024;19.220;2022-10-31T00:40:19;48.30;;;36.80;;
35290;SDS011;21411;50.024;19.220;2022-10-31T00:42:46;51.90;;;40.90;;
35290;SDS011;21411;50.024;19.220;2022-10-31T00:45:12;49.70;;;37.30;;
35290;SDS011;21411;50.024;19.220;2022-10-31T00:47:39;54.60;;;41.80;;
35290;SDS011;21411;50.024;19.220;2022-10-31T00:50:06;56.40;;;42.40;;
35290;SDS011;21411;50.024;19.220;2022-10-31T00:52:33;46.70;;;36.10;;
35290;SDS011;21411;50.024;19.220;2022-10-31T00:55:00;45.80;;;36.00;;
35290;SDS011;21411;50.024;19.220;2022-10-31T00:57:26;50.90;;;38.00;;
35290;SDS011;21411;50.024;19.220;2022-10-31T00:59:53;49.90;;;36.90;;
35290;SDS011;21411;50.024;19.220;2022-10-31T01:02:19;51.70;;;40.20;;
35290;SDS011;21411;50.024;19.220;2022-10-31T01:04:46;47.20;;;39.30;;
35290;SDS011;21411;50.024;19.220;2022-10-31T01:07:13;51.30;;;39.10;;
35290;SDS011;21411;50.024;19.220;2022-10-31T01:09:40;50.20;;;39.60;;
35290;SDS011;21411;50.024;19.220;2022-10-31T01:12:07;54.50;;;41.30;;
35290;SDS011;21411;50.024;19.220;2022-10-31T01:14:34;43.80;;;35.20;;
35290;SDS011;21411;50.024;19.220;2022-10-31T01:17:00;57.80;;;44.00;;
35290;SDS011;21411;50.024;19.220;2022-10-31T01:19:28;47.70;;;38.80;;
35290;SDS011;21411;50.024;19.220;2022-10-31T01:21:55;44.50;;;34.80;;
35290;SDS011;21411;50.024;19.220;2022-10-31T01:24:22;41.20;;;33.20;;
35290;SDS011;21411;50.024;19.220;2022-10-31T01:26:48;48.60;;;37.30;;
35290;SDS011;21411;50.024;19.220;2022-10-31T01:29:15;45.00;;;34.40;;
35290;SDS011;21411;50.024;19.220;2022-10-31T01:31:42;47.00;;;37.90;;
35290;SDS011;21411;50.024;19.220;2022-10-31T01:34:10;43.30;;;34.70;;
35290;SDS011;21411;50.024;19.220;2022-10-31T01:36:39;41.10;;;32.70;;
35290;SDS011;21411;50.024;19.220;2022-10-31T01:39:09;45.80;;;35.60;;
35290;SDS011;21411;50.024;19.220;2022-10-31T01:41:39;48.50;;;38.00;;
35290;SDS011;21411;50.024;19.220;2022-10-31T01:46:42;45.80;;;35.40;;
35290;SDS011;21411;50.024;19.220;2022-10-31T01:49:13;46.00;;;35.80;;
35290;SDS011;21411;50.024;19.220;2022-10-31T01:51:46;45.20;;;33.90;;
35290;SDS011;21411;50.024;19.220;2022-10-31T01:54:18;47.40;;;35.50;;
35290;SDS011;21411;50.024;19.220;2022-10-31T01:56:50;45.20;;;35.90;;
35290;SDS011;21411;50.024;19.220;2022-10-31T01:59:19;52.70;;;39.50;;
35290;SDS011;21411;50.024;19.220;2022-10-31T02:01:47;42.20;;;34.30;;
35290;SDS011;21411;50.024;19.220;2022-10-31T02:04:17;42.00;;;34.10;;
35290;SDS011;21411;50.024;19.220;2022-10-31T02:06:53;45.20;;;34.50;;
35290;SDS011;21411;50.024;19.220;2022-10-31T02:09:24;43.20;;;31.60;;
35290;SDS011;21411;50.024;19.220;2022-10-31T02:11:54;38.60;;;31.20;;
35290;SDS011;21411;50.024;19.220;2022-10-31T02:14:24;40.60;;;30.70;;
35290;SDS011;21411;50.024;19.220;2022-10-31T02:16:53;35.70;;;30.00;;
35290;SDS011;21411;50.024;19.220;2022-10-31T02:22:37;35.50;;;28.80;;
35290;SDS011;21411;50.024;19.220;2022-10-31T02:25:08;38.70;;;30.40;;
35290;SDS011;21411;50.024;19.220;2022-10-31T02:36:04;50.30;;;33.70;;
35290;SDS011;21411;50.024;19.220;2022-10-31T02:41:36;68.50;;;41.80;;
35290;SDS011;21411;50.024;19.220;2022-10-31T02:47:02;64.20;;;42.00;;
35290;SDS011;21411;50.024;19.220;2022-10-31T02:54:56;52.30;;;38.60;;
35290;SDS011;21411;50.024;19.220;2022-10-31T02:57:28;52.30;;;39.60;;
35290;SDS011;21411;50.024;19.220;2022-10-31T03:03:12;46.50;;;36.40;;
35290;SDS011;21411;50.024;19.220;2022-10-31T03:05:55;46.60;;;37.00;;
35290;SDS011;21411;50.024;19.220;2022-10-31T03:11:22;49.30;;;35.80;;
35290;SDS011;21411;50.024;19.220;2022-10-31T03:19:23;45.80;;;35.50;;
35290;SDS011;21411;50.024;19.220;2022-10-31T03:24:29;42.80;;;33.90;;
35290;SDS011;21411;50.024;19.220;2022-10-31T03:26:59;50.10;;;36.30;;
35290;SDS011;21411;50.024;19.220;2022-10-31T03:29:28;47.30;;;35.80;;
35290;SDS011;21411;50.024;19.220;2022-10-31T03:32:10;48.90;;;36.50;;
35290;SDS011;21411;50.024;19.220;2022-10-31T03:34:41;48.20;;;36.70;;
35290;SDS011;21411;50.024;19.220;2022-10-31T03:37:11;49.20;;;34.10;;
35290;SDS011;21411;50.024;19.220;2022-10-31T03:39:42;52.10;;;36.40;;
35290;SDS011;21411;50.024;19.220;2022-10-31T03:42:12;53.60;;;37.30;;
35290;SDS011;21411;50.024;19.220;2022-10-31T03:44:42;53.70;;;38.70;;
35290;SDS011;21411;50.024;19.220;2022-10-31T03:47:16;52.60;;;37.80;;
35290;SDS011;21411;50.024;19.220;2022-10-31T03:49:43;49.20;;;34.20;;
35290;SDS011;21411;50.024;19.220;2022-10-31T03:55:05;50.80;;;37.30;;
35290;SDS011;21411;50.024;19.220;2022-10-31T03:57:40;50.50;;;37.80;;
35290;SDS011;21411;50.024;19.220;2022-10-31T04:00:12;52.40;;;38.10;;
35290;SDS011;21411;50.024;19.220;2022-10-31T04:02:42;48.40;;;35.70;;
35290;SDS011;21411;50.024;19.220;2022-10-31T04:05:15;57.50;;;39.90;;
35290;SDS011;21411;50.024;19.220;2022-10-31T04:07:45;58.10;;;40.20;;
35290;SDS011;21411;50.024;19.220;2022-10-31T04:10:16;55.90;;;39.60;;
35290;SDS011;21411;50.024;19.220;2022-10-31T04:12:46;64.00;;;41.90;;
35290;SDS011;21411;50.024;19.220;2022-10-31T04:15:18;53.70;;;39.30;;
35290;SDS011;21411;50.024;19.220;2022-10-31T04:17:46;54.60;;;39.10;;
35290;SDS011;21411;50.024;19.220;2022-10-31T04:22:43;50.90;;;35.90;;
35290;SDS011;21411;50.024;19.220;2022-10-31T04:25:10;49.30;;;37.00;;
35290;SDS011;21411;50.024;19.220;2022-10-31T04:27:37;65.50;;;40.90;;
35290;SDS011;21411;50.024;19.220;2022-10-31T04:30:04;84.60;;;46.00;;
35290;SDS011;21411;50.024;19.220;2022-10-31T04:32:31;83.10;;;46.00;;
35290;SDS011;21411;50.024;19.220;2022-10-31T04:34:58;58.50;;;39.40;;
35290;SDS011;21411;50.024;19.220;2022-10-31T04:37:24;69.90;;;43.90;;
35290;SDS011;21411;50.024;19.220;2022-10-31T04:39:51;79.40;;;46.50;;
35290;SDS011;21411;50.024;19.220;2022-10-31T04:42:17;62.00;;;43.00;;
35290;SDS011;21411;50.024;19.220;2022-10-31T04:44:44;57.50;;;39.70;;
35290;SDS011;21411;50.024;19.220;2022-10-31T04:47:10;56.00;;;39.20;;
35290;SDS011;21411;50.024;19.220;2022-10-31T04:49:37;55.10;;;35.70;;
35290;SDS011;21411;50.024;19.220;2022-10-31T04:52:03;46.90;;;35.00;;
35290;SDS011;21411;50.024;19.220;2022-10-31T04:54:30;48.30;;;35.40;;
35290;SDS011;21411;50.024;19.220;2022-10-31T04:56:57;43.80;;;32.20;;
35290;SDS011;21411;50.024;19.220;2022-10-31T04:59:23;48.10;;;35.70;;
35290;SDS011;21411;50.024;19.220;2022-10-31T05:01:50;48.40;;;36.40;;
35290;SDS011;21411;50.024;19.220;2022-10-31T05:04:16;50.40;;;36.70;;
35290;SDS011;21411;50.024;19.220;2022-10-31T05:06:43;49.40;;;35.80;;
35290;SDS011;21411;50.024;19.220;2022-10-31T05:09:09;48.00;;;36.30;;
35290;SDS011;21411;50.024;19.220;2022-10-31T05:11:36;52.40;;;37.80;;
35290;SDS011;21411;50.024;19.220;2022-10-31T05:14:03;58.70;;;39.60;;
35290;SDS011;21411;50.024;19.220;2022-10-31T05:16:29;56.40;;;37.70;;
35290;SDS011;21411;50.024;19.220;2022-10-31T05:18:56;66.00;;;34.90;;
35290;SDS011;21411;50.024;19.220;2022-10-31T05:21:23;61.80;;;37.90;;
35290;SDS011;21411;50.024;19.220;2022-10-31T05:23:49;59.70;;;39.10;;
35290;SDS011;21411;50.024;19.220;2022-10-31T05:26:16;73.30;;;42.40;;
35290;SDS011;21411;50.024;19.220;2022-10-31T05:28:42;90.70;;;44.60;;
35290;SDS011;21411;50.024;19.220;2022-10-31T05:31:09;60.30;;;42.30;;
35290;SDS011;21411;50.024;19.220;2022-10-31T05:33:35;60.90;;;42.40;;
35290;SDS011;21411;50.024;19.220;2022-10-31T05:36:02;55.80;;;42.30;;
35290;SDS011;21411;50.024;19.220;2022-10-31T05:38:29;69.60;;;39.90;;
35290;SDS011;21411;50.024;19.220;2022-10-31T05:40:56;52.00;;;38.00;;
35290;SDS011;21411;50.024;19.220;2022-10-31T05:43:27;49.20;;;36.10;;
35290;SDS011;21411;50.024;19.220;2022-10-31T05:45:55;50.40;;;38.00;;
35290;SDS011;21411;50.024;19.220;2022-10-31T05:48:22;79.90;;;39.90;;
35290;SDS011;21411;50.024;19.220;2022-10-31T05:50:49;50.50;;;38.70;;
35290;SDS011;21411;50.024;19.220;2022-10-31T05:53:16;50.60;;;37.30;;
35290;SDS011;21411;50.024;19.220;2022-10-31T05:55:43;50.80;;;37.50;;
35290;SDS011;21411;50.024;19.220;2022-10-31T05:58:10;75.90;;;51.10;;
35290;SDS011;21411;50.024;19.220;2022-10-31T06:00:37;86.10;;;54.40;;
35290;SDS011;21411;50.024;19.220;2022-10-31T06:03:05;65.70;;;46.60;;
35290;SDS011;21411;50.024;19.220;2022-10-31T06:05:34;60.40;;;44.30;;
35290;SDS011;21411;50.024;19.220;2022-10-31T06:08:01;55.50;;;40.50;;
35290;SDS011;21411;50.024;19.220;2022-10-31T06:10:28;50.20;;;38.70;;
35290;SDS011;21411;50.024;19.220;2022-10-31T06:12:55;50.30;;;37.00;;
35290;SDS011;21411;50.024;19.220;2022-10-31T06:15:21;64.50;;;44.90;;
35290;SDS011;21411;50.024;19.220;2022-10-31T06:17:56;75.20;;;52.30;;
35290;SDS011;21411;50.024;19.220;2022-10-31T06:20:24;80.70;;;53.20;;
35290;SDS011;21411;50.024;19.220;2022-10-31T06:22:50;85.20;;;58.20;;
35290;SDS011;21411;50.024;19.220;2022-10-31T06:25:17;81.50;;;56.50;;
35290;SDS011;21411;50.024;19.220;2022-10-31T06:27:43;77.00;;;55.70;;
35290;SDS011;21411;50.024;19.220;2022-10-31T06:30:10;98.20;;;69.30;;
35290;SDS011;21411;50.024;19.220;2022-10-31T06:32:37;89.90;;;63.00;;
35290;SDS011;21411;50.024;19.220;2022-10-31T06:35:03;83.30;;;59.90;;
35290;SDS011;21411;50.024;19.220;2022-10-31T06:37:30;86.00;;;62.80;;
35290;SDS011;21411;50.024;19.220;2022-10-31T06:39:57;82.30;;;61.50;;
35290;SDS011;21411;50.024;19.220;2022-10-31T06:42:23;76.70;;;57.70;;
35290;SDS011;21411;50.024;19.220;2022-10-31T06:44:50;76.60;;;57.80;;
35290;SDS011;21411;50.024;19.220;2022-10-31T06:47:17;80.60;;;59.00;;
35290;SDS011;21411;50.024;19.220;2022-10-31T06:49:43;71.30;;;58.20;;
35290;SDS011;21411;50.024;19.220;2022-10-31T06:52:10;70.90;;;56.70;;
35290;SDS011;21411;50.024;19.220;2022-10-31T06:54:37;70.70;;;56.90;;
35290;SDS011;21411;50.024;19.220;2022-10-31T06:57:03;70.40;;;57.40;;
35290;SDS011;21411;50.024;19.220;2022-10-31T06:59:30;75.40;;;57.00;;
35290;SDS011;21411;50.024;19.220;2022-10-31T07:01:57;71.70;;;56.10;;
35290;SDS011;21411;50.024;19.220;2022-10-31T07:04:24;64.00;;;52.50;;
35290;SDS011;21411;50.024;19.220;2022-10-31T07:06:51;62.60;;;50.80;;
35290;SDS011;21411;50.024;19.220;2022-10-31T07:09:19;62.50;;;48.10;;
35290;SDS011;21411;50.024;19.220;2022-10-31T07:11:46;55.50;;;46.20;;
35290;SDS011;21411;50.024;19.220;2022-10-31T07:14:12;54.00;;;43.90;;
35290;SDS011;21411;50.024;19.220;2022-10-31T07:16:39;42.80;;;37.00;;
35290;SDS011;21411;50.024;19.220;2022-10-31T07:19:05;42.20;;;34.00;;
35290;SDS011;21411;50.024;19.220;2022-10-31T07:21:32;36.90;;;31.90;;
35290;SDS011;21411;50.024;19.220;2022-10-31T07:23:58;34.10;;;29.70;;
35290;SDS011;21411;50.024;19.220;2022-10-31T07:26:25;32.90;;;28.40;;
35290;SDS011;21411;50.024;19.220;2022-10-31T07:28:53;51.60;;;30.70;;
35290;SDS011;21411;50.024;19.220;2022-10-31T07:31:20;45.10;;;28.90;;
35290;SDS011;21411;50.024;19.220;2022-10-31T07:33:47;31.30;;;26.20;;
35290;SDS011;21411;50.024;19.220;2022-10-31T07:36:13;34.00;;;26.60;;
35290;SDS011;21411;50.024;19.220;2022-10-31T07:38:40;34.90;;;25.90;;
35290;SDS011;21411;50.024;19.220;2022-10-31T07:41:07;31.20;;;25.20;;
35290;SDS011;21411;50.024;19.220;2022-10-31T07:43:34;28.80;;;22.90;;
35290;SDS011;21411;50.024;19.220;2022-10-31T07:46:01;26.70;;;21.40;;
35290;SDS011;21411;50.024;19.220;2022-10-31T07:48:27;27.90;;;20.00;;
35290;SDS011;21411;50.024;19.220;2022-10-31T07:50:54;25.80;;;19.60;;
35290;SDS011;21411;50.024;19.220;2022-10-31T07:53:21;26.00;;;19.20;;
35290;SDS011;21411;50.024;19.220;2022-10-31T07:55:47;21.20;;;18.80;;
35290;SDS011;21411;50.024;19.220;2022-10-31T07:58:15;28.20;;;21.00;;
35290;SDS011;21411;50.024;19.220;2022-10-31T08:00:43;27.60;;;19.90;;
35290;SDS011;21411;50.024;19.220;2022-10-31T08:03:15;26.10;;;19.70;;
35290;SDS011;21411;50.024;19.220;2022-10-31T08:05:43;22.00;;;17.30;;
35290;SDS011;21411;50.024;19.220;2022-10-31T08:08:12;22.30;;;17.60;;
35290;SDS011;21411;50.024;19.220;2022-10-31T08:10:39;27.30;;;17.70;;
35290;SDS011;21411;50.024;19.220;2022-10-31T08:13:10;22.00;;;16.90;;
35290;SDS011;21411;50.024;19.220;2022-10-31T08:15:38;21.60;;;17.10;;
35290;SDS011;21411;50.024;19.220;2022-10-31T08:18:11;21.70;;;18.70;;
35290;SDS011;21411;50.024;19.220;2022-10-31T08:20:39;19.20;;;16.20;;
35290;SDS011;21411;50.024;19.220;2022-10-31T08:23:08;20.70;;;15.20;;
35290;SDS011;21411;50.024;19.220;2022-10-31T08:25:36;22.90;;;16.20;;
35290;SDS011;21411;50.024;19.220;2022-10-31T08:28:03;21.80;;;14.40;;
35290;SDS011;21411;50.024;19.220;2022-10-31T08:30:32;17.90;;;14.40;;
35290;SDS011;21411;50.024;19.220;2022-10-31T08:35:32;15.70;;;13.10;;
35290;SDS011;21411;50.024;19.220;2022-10-31T08:37:59;16.50;;;12.50;;
35290;SDS011;21411;50.024;19.220;2022-10-31T08:40:27;16.20;;;13.10;;
35290;SDS011;21411;50.024;19.220;2022-10-31T08:42:56;13.30;;;11.50;;
35290;SDS011;21411;50.024;19.220;2022-10-31T08:45:27;19.30;;;13.20;;
35290;SDS011;21411;50.024;19.220;2022-10-31T08:47:59;15.70;;;11.80;;
35290;SDS011;21411;50.024;19.220;2022-10-31T08:50:27;14.10;;;10.60;;
35290;SDS011;21411;50.024;19.220;2022-10-31T08:53:05;14.00;;;11.30;;
35290;SDS011;21411;50.024;19.220;2022-10-31T08:55:34;14.60;;;10.50;;
35290;SDS011;21411;50.024;19.220;2022-10-31T08:58:02;15.40;;;10.40;;
35290;SDS011;21411;50.024;19.220;2022-10-31T09:00:30;13.70;;;9.80;;
35290;SDS011;21411;50.024;19.220;2022-10-31T09:02:58;13.30;;;10.10;;
35290;SDS011;21411;50.024;19.220;2022-10-31T09:05:26;12.10;;;8.90;;
35290;SDS011;21411;50.024;19.220;2022-10-31T09:07:57;12.10;;;9.50;;
35290;SDS011;21411;50.024;19.220;2022-10-31T09:10:25;14.10;;;9.00;;
35290;SDS011;21411;50.024;19.220;2022-10-31T09:13:00;12.50;;;9.00;;
35290;SDS011;21411;50.024;19.220;2022-10-31T09:15:30;10.40;;;8.40;;
35290;SDS011;21411;50.024;19.220;2022-10-31T09:17:56;11.20;;;9.10;;
35290;SDS011;21411;50.024;19.220;2022-10-31T09:20:23;10.30;;;8.30;;
35290;SDS011;21411;50.024;19.220;2022-10-31T09:22:56;13.70;;;7.60;;
35290;SDS011;21411;50.024;19.220;2022-10-31T09:25:24;14.60;;;7.30;;
35290;SDS011;21411;50.024;19.220;2022-10-31T09:27:55;10.10;;;7.40;;
35290;SDS011;21411;50.024;19.220;2022-10-31T09:30:25;10.60;;;7.50;;
35290;SDS011;21411;50.024;19.220;2022-10-31T09:33:06;11.90;;;7.80;;
35290;SDS011;21411;50.024;19.220;2022-10-31T09:35:36;12.60;;;7.70;;
35290;SDS011;21411;50.024;19.220;2022-10-31T09:38:05;9.80;;;7.80;;
35290;SDS011;21411;50.024;19.220;2022-10-31T09:43:12;11.60;;;7.10;;
35290;SDS011;21411;50.024;19.220;2022-10-31T09:48:27;12.50;;;8.50;;
35290;SDS011;21411;50.024;19.220;2022-10-31T09:50:58;14.70;;;8.20;;
35290;SDS011;21411;50.024;19.220;2022-10-31T09:53:32;12.20;;;7.60;;
35290;SDS011;21411;50.024;19.220;2022-10-31T09:56:05;13.50;;;8.70;;
35290;SDS011;21411;50.024;19.220;2022-10-31T09:58:38;11.40;;;7.90;;
35290;SDS011;21411;50.024;19.220;2022-10-31T10:01:30;10.60;;;7.30;;
35290;SDS011;21411;50.024;19.220;2022-10-31T10:09:57;10.40;;;7.50;;
35290;SDS011;21411;50.024;19.220;2022-10-31T10:12:44;11.00;;;8.20;;
35290;SDS011;21411;50.024;19.220;2022-10-31T10:18:35;10.90;;;7.40;;
35290;SDS011;21411;50.024;19.220;2022-10-31T10:24:03;16.40;;;6.90;;
35290;SDS011;21411;50.024;19.220;2022-10-31T10:26:36;16.20;;;6.90;;
35290;SDS011;21411;50.024;19.220;2022-10-31T10:29:18;11.60;;;6.80;;
35290;SDS011;21411;50.024;19.220;2022-10-31T10:32:01;8.50;;;6.20;;
35290;SDS011;21411;50.024;19.220;2022-10-31T10:34:37;8.50;;;6.50;;
35290;SDS011;21411;50.024;19.220;2022-10-31T10:37:15;12.70;;;8.20;;
35290;SDS011;21411;50.024;19.220;2022-10-31T10:40:15;10.80;;;6.70;;
35290;SDS011;21411;50.024;19.220;2022-10-31T10:42:53;10.50;;;6.70;;
35290;SDS011;21411;50.024;19.220;2022-10-31T10:46:01;9.50;;;7.40;;
35290;SDS011;21411;50.024;19.220;2022-10-31T10:59:59;10.20;;;6.20;;
35290;SDS011;21411;50.024;19.220;2022-10-31T11:02:30;10.70;;;7.00;;
35290;SDS011;21411;50.024;19.220;2022-10-31T11:04:58;11.50;;;7.00;;
35290;SDS011;21411;50.024;19.220;2022-10-31T11:07:37;12.70;;;7.70;;
35290;SDS011;21411;50.024;19.220;2022-10-31T11:10:11;11.50;;;7.30;;
35290;SDS011;21411;50.024;19.220;2022-10-31T11:12:44;10.90;;;7.00;;
35290;SDS011;21411;50.024;19.220;2022-10-31T11:15:24;13.30;;;6.90;;
35290;SDS011;21411;50.024;19.220;2022-10-31T11:17:53;14.80;;;7.90;;
35290;SDS011;21411;50.024;19.220;2022-10-31T11:20:26;10.70;;;7.00;;
35290;SDS011;21411;50.024;19.220;2022-10-31T11:23:19;10.70;;;7.80;;
35290;SDS011;21411;50.024;19.220;2022-10-31T11:26:16;14.40;;;7.00;;
35290;SDS011;21411;50.024;19.220;2022-10-31T11:28:44;9.60;;;7.60;;
35290;SDS011;21411;50.024;19.220;2022-10-31T11:31:22;13.40;;;7.00;;
35290;SDS011;21411;50.024;19.220;2022-10-31T11:33:53;15.50;;;7.70;;
35290;SDS011;21411;50.024;19.220;2022-10-31T11:36:35;12.00;;;7.30;;
35290;SDS011;21411;50.024;19.220;2022-10-31T11:39:05;14.40;;;7.00;;
35290;SDS011;21411;50.024;19.220;2022-10-31T11:41:40;11.40;;;6.90;;
35290;SDS011;21411;50.024;19.220;2022-10-31T11:44:17;10.90;;;6.90;;
35290;SDS011;21411;50.024;19.220;2022-10-31T11:46:48;12.30;;;6.80;;
35290;SDS011;21411;50.024;19.220;2022-10-31T11:52:00;14.10;;;7.00;;
35290;SDS011;21411;50.024;19.220;2022-10-31T11:54:44;11.00;;;6.80;;
35290;SDS011;21411;50.024;19.220;2022-10-31T11:57:28;8.00;;;6.70;;
35290;SDS011;21411;50.024;19.220;2022-10-31T12:00:21;9.10;;;7.30;;
35290;SDS011;21411;50.024;19.220;2022-10-31T12:02:48;9.90;;;7.10;;
35290;SDS011;21411;50.024;19.220;2022-10-31T12:05:19;12.20;;;7.00;;
35290;SDS011;21411;50.024;19.220;2022-10-31T12:07:49;12.30;;;7.10;;
35290;SDS011;21411;50.024;19.220;2022-10-31T12:10:20;11.50;;;7.50;;
35290;SDS011;21411;50.024;19.220;2022-10-31T12:15:46;10.60;;;7.60;;
35290;SDS011;21411;50.024;19.220;2022-10-31T12:18:47;11.00;;;6.80;;
35290;SDS011;21411;50.024;19.220;2022-10-31T12:24:18;12.80;;;6.60;;
35290;SDS011;21411;50.024;19.220;2022-10-31T12:32:29;14.00;;;7.40;;
35290;SDS011;21411;50.024;19.220;2022-10-31T12:38:03;8.60;;;6.20;;
35290;SDS011;21411;50.024;19.220;2022-10-31T12:43:46;11.40;;;7.10;;
35290;SDS011;21411;50.024;19.220;2022-10-31T12:57:28;11.50;;;7.70;;
35290;SDS011;21411;50.024;19.220;2022-10-31T13:00:15;10.30;;;6.80;;
35290;SDS011;21411;50.024;19.220;2022-10-31T13:05:41;11.90;;;7.60;;
35290;SDS011;21411;50.024;19.220;2022-10-31T13:08:14;14.70;;;9.20;;
35290;SDS011;21411;50.024;19.220;2022-10-31T13:13:35;14.30;;;8.30;;
35290;SDS011;21411;50.024;19.220;2022-10-31T13:18:49;11.80;;;7.80;;
35290;SDS011;21411;50.024;19.220;2022-10-31T13:21:29;13.90;;;7.90;;
35290;SDS011;21411;50.024;19.220;2022-10-31T13:24:01;15.50;;;7.60;;
35290;SDS011;21411;50.024;19.220;2022-10-31T13:26:37;13.70;;;7.00;;
35290;SDS011;21411;50.024;19.220;2022-10-31T13:29:23;11.20;;;7.70;;
35290;SDS011;21411;50.024;19.220;2022-10-31T13:31:54;13.00;;;6.80;;
35290;SDS011;21411;50.024;19.220;2022-10-31T13:34:26;12.20;;;7.50;;
35290;SDS011;21411;50.024;19.220;2022-10-31T13:45:17;14.30;;;7.40;;
35290;SDS011;21411;50.024;19.220;2022-10-31T13:47:55;12.40;;;7.20;;
35290;SDS011;21411;50.024;19.220;2022-10-31T13:50:25;10.30;;;7.60;;
35290;SDS011;21411;50.024;19.220;2022-10-31T13:52:52;11.70;;;7.80;;
35290;SDS011;21411;50.024;19.220;2022-10-31T14:00:57;16.40;;;7.70;;
35290;SDS011;21411;50.024;19.220;2022-10-31T14:03:39;13.80;;;7.40;;
35290;SDS011;21411;50.024;19.220;2022-10-31T14:06:07;14.80;;;7.90;;
35290;SDS011;21411;50.024;19.220;2022-10-31T14:08:37;13.50;;;8.10;;
35290;SDS011;21411;50.024;19.220;2022-10-31T14:11:16;14.90;;;8.40;;
35290;SDS011;21411;50.024;19.220;2022-10-31T14:13:54;12.40;;;8.10;;
35290;SDS011;21411;50.024;19.220;2022-10-31T14:16:24;10.30;;;8.00;;
35290;SDS011;21411;50.024;19.220;2022-10-31T14:18:58;13.30;;;8.30;;
35290;SDS011;21411;50.024;19.220;2022-10-31T14:21:39;13.20;;;7.80;;
35290;SDS011;21411;50.024;19.220;2022-10-31T14:24:15;13.50;;;8.00;;
35290;SDS011;21411;50.024;19.220;2022-10-31T14:26:53;14.00;;;8.10;;
35290;SDS011;21411;50.024;19.220;2022-10-31T14:29:26;13.30;;;8.40;;
35290;SDS011;21411;50.024;19.220;2022-10-31T14:51:10;15.20;;;8.10;;
35290;SDS011;21411;50.024;19.220;2022-10-31T14:53:45;12.20;;;8.30;;
35290;SDS011;21411;50.024;19.220;2022-10-31T14:56:17;14.30;;;9.20;;
35290;SDS011;21411;50.024;19.220;2022-10-31T14:58:49;12.90;;;8.50;;
35290;SDS011;21411;50.024;19.220;2022-10-31T15:01:24;12.60;;;9.00;;
35290;SDS011;21411;50.024;19.220;2022-10-31T15:04:04;15.20;;;9.30;;
35290;SDS011;21411;50.024;19.220;2022-10-31T15:06:38;16.70;;;9.70;;
35290;SDS011;21411;50.024;19.220;2022-10-31T15:09:30;14.90;;;9.70;;
35290;SDS011;21411;50.024;19.220;2022-10-31T15:12:16;16.60;;;9.80;;
35290;SDS011;21411;50.024;19.220;2022-10-31T15:14:55;16.40;;;10.20;;
35290;SDS011;21411;50.024;19.220;2022-10-31T15:17:23;17.20;;;11.00;;
35290;SDS011;21411;50.024;19.220;2022-10-31T15:19:52;20.00;;;11.00;;
35290;SDS011;21411;50.024;19.220;2022-10-31T15:22:20;16.70;;;10.50;;
35290;SDS011;21411;50.024;19.220;2022-10-31T15:27:22;17.50;;;11.00;;
35290;SDS011;21411;50.024;19.220;2022-10-31T15:29:51;18.80;;;11.20;;
35290;SDS011;21411;50.024;19.220;2022-10-31T15:32:20;23.70;;;11.60;;
35290;SDS011;21411;50.024;19.220;2022-10-31T15:34:49;19.20;;;12.20;;
35290;SDS011;21411;50.024;19.220;2022-10-31T15:37:18;19.20;;;12.30;;
35290;SDS011;21411;50.024;19.220;2022-10-31T15:39:48;20.30;;;12.00;;
35290;SDS011;21411;50.024;19.220;2022-10-31T15:45:00;22.10;;;14.90;;
35290;SDS011;21411;50.024;19.220;2022-10-31T15:47:31;25.30;;;15.20;;
35290;SDS011;21411;50.024;19.220;2022-10-31T15:49:59;29.80;;;19.50;;
35290;SDS011;21411;50.024;19.220;2022-10-31T15:52:29;37.50;;;23.00;;
35290;SDS011;21411;50.024;19.220;2022-10-31T15:55:00;43.30;;;28.60;;
35290;SDS011;21411;50.024;19.220;2022-10-31T15:57:30;35.50;;;23.60;;
35290;SDS011;21411;50.024;19.220;2022-10-31T15:59:58;29.20;;;18.30;;
35290;SDS011;21411;50.024;19.220;2022-10-31T16:02:26;34.00;;;22.20;;
35290;SDS011;21411;50.024;19.220;2022-10-31T16:04:57;26.50;;;17.00;;
35290;SDS011;21411;50.024;19.220;2022-10-31T16:07:26;31.40;;;22.20;;
35290;SDS011;21411;50.024;19.220;2022-10-31T16:09:57;28.30;;;19.50;;
35290;SDS011;21411;50.024;19.220;2022-10-31T16:12:30;29.30;;;20.30;;
35290;SDS011;21411;50.024;19.220;2022-10-31T16:15:00;104.90;;;62.80;;
35290;SDS011;21411;50.024;19.220;2022-10-31T16:17:28;79.40;;;49.30;;
35290;SDS011;21411;50.024;19.220;2022-10-31T16:20:02;69.00;;;43.20;;
35290;SDS011;21411;50.024;19.220;2022-10-31T16:22:36;45.10;;;30.40;;
35290;SDS011;21411;50.024;19.220;2022-10-31T16:25:10;53.60;;;34.80;;
35290;SDS011;21411;50.024;19.220;2022-10-31T16:27:39;66.60;;;41.90;;
35290;SDS011;21411;50.024;19.220;2022-10-31T16:32:56;98.00;;;67.80;;
35290;SDS011;21411;50.024;19.220;2022-10-31T16:37:53;86.30;;;60.00;;
35290;SDS011;21411;50.024;19.220;2022-10-31T16:40:20;86.50;;;60.10;;
35290;SDS011;21411;50.024;19.220;2022-10-31T16:42:47;64.40;;;44.20;;
35290;SDS011;21411;50.024;19.220;2022-10-31T16:45:18;63.80;;;41.90;;
35290;SDS011;21411;50.024;19.220;2022-10-31T16:47:47;69.20;;;47.60;;
35290;SDS011;21411;50.024;19.220;2022-10-31T16:50:24;67.30;;;44.70;;
35290;SDS011;21411;50.024;19.220;2022-10-31T16:52:52;63.30;;;39.40;;
35290;SDS011;21411;50.024;19.220;2022-10-31T16:55:19;60.00;;;40.20;;
35290;SDS011;21411;50.024;19.220;2022-10-31T16:57:48;68.00;;;43.70;;
35290;SDS011;21411;50.024;19.220;2022-10-31T17:00:17;70.10;;;47.50;;
35290;SDS011;21411;50.024;19.220;2022-10-31T17:02:46;92.90;;;61.00;;
35290;SDS011;21411;50.024;19.220;2022-10-31T17:05:15;82.10;;;49.00;;
35290;SDS011;21411;50.024;19.220;2022-10-31T17:07:43;75.10;;;49.20;;
35290;SDS011;21411;50.024;19.220;2022-10-31T17:10:11;77.70;;;48.30;;
35290;SDS011;21411;50.024;19.220;2022-10-31T17:12:40;85.70;;;53.10;;